Time;durP1;ratioP1;P1;durP2;ratioP2;P2;SDS_P1;SDS_P2;PMS_P1;PMS_P2;Temp;Humidity;BMP_temperature;BMP_pressure;BME280_temperature;BME280_humidity;BME280_pressure;Samples;Min_cycle;Max_cycle;Signal;HPM_P1;HPM_P2
2021/09/18 00:00:11;;;;;;;16.67;8.65;;;18.70;81.00;;;;;;5139387;27;20110;-34
2021/09/18 00:02:37;;;;;;;18.17;8.40;;;18.70;81.00;;;;;;5139137;27;20368;-32
2021/09/18 00:05:03;;;;;;;12.88;9.10;;;18.80;81.20;;;;;;5138755;27;20146;-32
2021/09/18 00:07:29;;;;;;;12.38;8.20;;;18.70;81.30;;;;;;5139065;27;20078;-34
2021/09/18 00:09:55;;;;;;;14.63;9.07;;;18.80;81.40;;;;;;5138720;27;20190;-34
2021/09/18 00:12:20;;;;;;;19.67;9.68;;;18.80;81.50;;;;;;5138283;27;20369;-36
2021/09/18 00:14:46;;;;;;;14.15;8.13;;;18.80;81.60;;;;;;5139038;27;20031;-33
2021/09/18 00:17:12;;;;;;;15.23;8.82;;;18.80;81.70;;;;;;5137468;27;20434;-42
2021/09/18 00:19:38;;;;;;;12.25;8.68;;;18.80;81.80;;;;;;5138566;27;20113;-41
2021/09/18 00:22:04;;;;;;;15.98;9.68;;;18.90;81.90;;;;;;5138719;27;20110;-42
2021/09/18 00:24:29;;;;;;;13.15;9.60;;;18.90;82.30;;;;;;5138502;27;20059;-38
2021/09/18 00:26:55;;;;;;;13.38;8.85;;;18.90;82.50;;;;;;5138726;27;20023;-42
2021/09/18 00:29:20;;;;;;;14.63;9.45;;;18.90;82.70;;;;;;5138343;27;20027;-38
2021/09/18 00:31:46;;;;;;;12.15;8.48;;;18.90;82.70;;;;;;5138515;27;20031;-42
2021/09/18 00:34:12;;;;;;;13.75;9.13;;;18.90;82.80;;;;;;5138566;27;20473;-40
2021/09/18 00:36:38;;;;;;;11.48;8.63;;;18.90;83.10;;;;;;5138019;27;20031;-37
2021/09/18 00:39:04;;;;;;;14.93;9.60;;;18.90;83.20;;;;;;5138097;27;20035;-40
2021/09/18 00:41:29;;;;;;;14.30;8.85;;;18.90;83.30;;;;;;5138015;27;20031;-37
2021/09/18 00:43:57;;;;;;;11.90;8.10;;;18.90;83.30;;;;;;5138126;27;20027;-36
2021/09/18 00:46:23;;;;;;;13.13;8.68;;;18.90;83.30;;;;;;5138059;27;20027;-44
2021/09/18 00:48:49;;;;;;;13.55;8.85;;;18.90;83.40;;;;;;5137927;27;20027;-38
2021/09/18 00:51:17;;;;;;;12.57;9.60;;;19.00;83.50;;;;;;5137785;27;20031;-42
2021/09/18 00:53:43;;;;;;;12.05;8.85;;;19.00;83.70;;;;;;5137856;27;20439;-43
2021/09/18 00:56:10;;;;;;;14.18;9.13;;;19.00;83.50;;;;;;5137949;27;20034;-42
2021/09/18 00:58:35;;;;;;;13.48;9.38;;;19.00;84.30;;;;;;5137879;27;20110;-37
2021/09/18 01:01:02;;;;;;;16.27;10.52;;;19.00;84.20;;;;;;5137180;27;20490;-39
2021/09/18 01:03:28;;;;;;;12.90;9.65;;;19.00;84.50;;;;;;5138125;27;20361;-40
2021/09/18 01:05:56;;;;;;;13.77;10.43;;;19.10;84.60;;;;;;5137391;27;20060;-42
2021/09/18 01:08:24;;;;;;;14.50;10.15;;;19.10;84.60;;;;;;5138075;27;20031;-36
2021/09/18 01:10:51;;;;;;;13.65;10.40;;;19.10;84.70;;;;;;5137565;27;20365;-42
2021/09/18 01:13:18;;;;;;;13.55;9.57;;;19.10;84.90;;;;;;5137923;27;20039;-35
2021/09/18 01:15:44;;;;;;;12.07;9.90;;;19.10;85.00;;;;;;5137233;27;20042;-42
2021/09/18 01:18:10;;;;;;;15.30;10.27;;;19.10;85.10;;;;;;5137796;27;20118;-37
2021/09/18 01:20:38;;;;;;;14.70;10.27;;;19.10;85.30;;;;;;5137060;27;20028;-38
2021/09/18 01:23:06;;;;;;;13.13;10.05;;;19.10;85.60;;;;;;5137240;27;20122;-42
2021/09/18 01:25:35;;;;;;;13.90;10.88;;;19.10;85.60;;;;;;5137143;27;20027;-42
2021/09/18 01:28:02;;;;;;;15.50;10.02;;;19.10;85.90;;;;;;5137471;27;20027;-36
2021/09/18 01:30:29;;;;;;;14.85;10.48;;;19.10;85.80;;;;;;5137020;27;20168;-42
2021/09/18 01:32:57;;;;;;;14.23;10.35;;;19.10;86.10;;;;;;5137401;27;20050;-39
2021/09/18 01:35:23;;;;;;;14.65;10.10;;;19.10;86.20;;;;;;5137192;27;20028;-42
2021/09/18 01:37:48;;;;;;;16.20;11.02;;;19.10;86.70;;;;;;5137245;27;20038;-36
2021/09/18 01:40:19;;;;;;;14.23;9.90;;;19.10;86.90;;;;;;5137284;27;20030;-37
2021/09/18 01:42:46;;;;;;;15.75;10.80;;;19.10;87.00;;;;;;5137102;27;20030;-37
2021/09/18 01:45:13;;;;;;;14.25;10.50;;;19.00;87.20;;;;;;5136976;27;20031;-42
2021/09/18 01:47:44;;;;;;;14.35;10.68;;;19.10;87.30;;;;;;5136774;27;20023;-42
2021/09/18 01:50:18;;;;;;;15.32;11.93;;;19.00;87.30;;;;;;5137033;27;20084;-42
2021/09/18 01:52:47;;;;;;;18.00;11.68;;;19.10;87.40;;;;;;5137089;27;20027;-41
2021/09/18 01:55:14;;;;;;;14.50;11.32;;;19.00;87.60;;;;;;5136545;27;20134;-37
2021/09/18 01:57:48;;;;;;;17.83;12.07;;;19.10;87.50;;;;;;5136826;27;20035;-41
2021/09/18 02:00:15;;;;;;;17.27;12.07;;;19.00;87.50;;;;;;5136739;27;20115;-37
2021/09/18 02:02:41;;;;;;;13.65;10.65;;;19.00;87.50;;;;;;5136757;27;20030;-39
2021/09/18 02:05:08;;;;;;;16.60;12.02;;;19.00;87.30;;;;;;5136667;27;20034;-43
2021/09/18 02:07:34;;;;;;;19.98;12.10;;;19.00;87.50;;;;;;5136718;27;20038;-41
2021/09/18 02:09:59;;;;;;;16.00;11.98;;;19.00;87.50;;;;;;5136608;27;20024;-37
2021/09/18 02:12:25;;;;;;;14.98;11.65;;;19.00;87.30;;;;;;5136703;27;20300;-38
2021/09/18 02:14:51;;;;;;;19.38;11.82;;;19.00;87.10;;;;;;5136573;27;20038;-42
2021/09/18 02:17:17;;;;;;;17.55;12.07;;;19.00;87.00;;;;;;5136137;27;20046;-41
2021/09/18 02:19:42;;;;;;;17.00;11.80;;;19.00;87.00;;;;;;5136362;27;20054;-38
2021/09/18 02:22:08;;;;;;;15.98;11.68;;;19.00;86.90;;;;;;5136798;28;20103;-42
2021/09/18 02:24:34;;;;;;;15.88;11.90;;;19.00;86.70;;;;;;5136702;28;20041;-41
2021/09/18 02:26:59;;;;;;;16.77;10.50;;;19.00;86.70;;;;;;5136285;28;20038;-38
2021/09/18 02:29:25;;;;;;;15.85;11.80;;;19.00;87.10;;;;;;5136689;28;20320;-37
2021/09/18 02:31:51;;;;;;;17.95;11.80;;;19.00;86.60;;;;;;5136242;28;20027;-38
2021/09/18 02:34:16;;;;;;;16.85;11.25;;;19.00;86.40;;;;;;5136481;28;20032;-42
2021/09/18 02:36:42;;;;;;;16.33;11.65;;;19.00;86.30;;;;;;5136286;28;20408;-44
2021/09/18 02:39:08;;;;;;;14.43;11.60;;;19.00;86.30;;;;;;5136401;27;20036;-39
2021/09/18 02:41:34;;;;;;;19.08;11.55;;;19.00;86.20;;;;;;5140296;27;20084;-36
2021/09/18 02:43:59;;;;;;;16.60;11.90;;;19.00;86.00;;;;;;5140401;27;20038;-42
2021/09/18 02:46:25;;;;;;;15.13;10.50;;;18.90;85.80;;;;;;5140360;27;20031;-41
2021/09/18 02:48:51;;;;;;;16.20;11.60;;;18.90;85.50;;;;;;5140254;27;20031;-42
2021/09/18 02:51:16;;;;;;;15.23;10.25;;;18.90;85.50;;;;;;5140064;27;20031;-41
2021/09/18 02:53:42;;;;;;;16.00;11.82;;;18.90;85.30;;;;;;5139948;27;20074;-40
2021/09/18 02:56:07;;;;;;;13.05;10.82;;;18.90;85.30;;;;;;5140360;27;20023;-42
2021/09/18 02:58:33;;;;;;;15.05;11.13;;;18.90;85.20;;;;;;5140366;27;20058;-37
2021/09/18 03:00:59;;;;;;;15.02;10.98;;;18.90;85.00;;;;;;5139779;27;20031;-37
2021/09/18 03:03:24;;;;;;;18.13;11.52;;;18.90;84.90;;;;;;5140674;27;20034;-39
2021/09/18 03:05:50;;;;;;;16.92;11.43;;;18.90;84.90;;;;;;5140050;27;20437;-38
2021/09/18 03:08:16;;;;;;;15.65;10.85;;;18.90;84.90;;;;;;5140472;27;20406;-39
2021/09/18 03:10:41;;;;;;;13.45;10.30;;;18.90;84.50;;;;;;5139948;27;20027;-42
2021/09/18 03:13:07;;;;;;;16.33;10.80;;;18.90;84.30;;;;;;5140327;27;20031;-35
2021/09/18 03:15:32;;;;;;;15.27;11.10;;;19.00;84.30;;;;;;5139788;27;20037;-37
2021/09/18 03:17:58;;;;;;;17.48;10.52;;;18.90;83.90;;;;;;5140122;27;20066;-39
2021/09/18 03:20:24;;;;;;;15.95;10.95;;;18.90;83.60;;;;;;5139962;27;20054;-36
2021/09/18 03:22:49;;;;;;;16.27;10.98;;;18.90;83.80;;;;;;5139881;27;20414;-42
2021/09/18 03:25:15;;;;;;;14.88;10.82;;;18.90;83.50;;;;;;5139655;27;20023;-34
2021/09/18 03:27:41;;;;;;;15.18;10.70;;;18.90;83.60;;;;;;5139851;27;20054;-34
2021/09/18 03:30:07;;;;;;;15.45;10.57;;;18.90;83.50;;;;;;5139508;27;20023;-33
2021/09/18 03:32:34;;;;;;;15.02;11.48;;;18.90;83.40;;;;;;5139665;27;20035;-34
2021/09/18 03:35:00;;;;;;;17.05;11.35;;;18.90;83.50;;;;;;5139299;27;20031;-33
2021/09/18 03:37:26;;;;;;;18.42;11.68;;;18.90;83.60;;;;;;5139579;27;20430;-34
2021/09/18 03:39:51;;;;;;;16.65;11.27;;;18.90;83.40;;;;;;5139692;27;20035;-34
2021/09/18 03:42:17;;;;;;;17.35;11.02;;;18.90;83.50;;;;;;5139395;27;20420;-33
2021/09/18 03:44:43;;;;;;;16.05;11.13;;;18.90;83.40;;;;;;5139560;27;20027;-33
2021/09/18 03:47:08;;;;;;;17.92;11.27;;;18.90;83.60;;;;;;5139403;27;20388;-34
2021/09/18 03:49:34;;;;;;;16.10;12.40;;;18.90;83.80;;;;;;5139417;27;20019;-33
2021/09/18 03:52:00;;;;;;;20.73;12.32;;;18.80;83.70;;;;;;5139152;27;20320;-35
2021/09/18 03:54:26;;;;;;;16.45;11.82;;;18.80;83.90;;;;;;5139040;27;20081;-33
2021/09/18 03:56:51;;;;;;;13.98;11.35;;;18.90;84.00;;;;;;5138861;27;20323;-35
2021/09/18 03:59:17;;;;;;;14.85;11.98;;;18.90;83.90;;;;;;5139146;27;20027;-35
2021/09/18 04:01:43;;;;;;;14.27;12.20;;;18.80;83.90;;;;;;5139021;27;20341;-34
2021/09/18 04:04:09;;;;;;;15.30;11.88;;;18.90;84.00;;;;;;5139105;27;20395;-35
2021/09/18 04:06:34;;;;;;;16.30;12.27;;;18.80;84.10;;;;;;5138774;27;20031;-35
2021/09/18 04:09:00;;;;;;;16.48;12.27;;;18.80;84.20;;;;;;5139046;27;20046;-33
2021/09/18 04:11:25;;;;;;;14.70;11.75;;;18.80;84.30;;;;;;5138814;27;20063;-35
2021/09/18 04:13:51;;;;;;;16.80;12.60;;;18.80;84.30;;;;;;5138664;27;20422;-35
2021/09/18 04:16:20;;;;;;;17.10;12.70;;;18.90;84.50;;;;;;5138622;27;20069;-34
2021/09/18 04:18:47;;;;;;;14.50;11.95;;;18.90;84.80;;;;;;5138328;27;20023;-35
2021/09/18 04:21:12;;;;;;;15.85;12.23;;;18.90;84.70;;;;;;5138501;27;20292;-35
2021/09/18 04:23:38;;;;;;;17.05;12.00;;;18.90;84.70;;;;;;5138409;27;20035;-35
2021/09/18 04:26:04;;;;;;;18.13;12.98;;;18.90;84.80;;;;;;5138340;27;20029;-35
2021/09/18 04:28:30;;;;;;;15.40;13.35;;;18.90;84.70;;;;;;5138376;27;20027;-33
2021/09/18 04:30:55;;;;;;;19.35;13.30;;;18.90;84.90;;;;;;5138186;27;20034;-34
2021/09/18 04:33:21;;;;;;;19.95;13.50;;;19.00;84.90;;;;;;5138672;27;20027;-33
2021/09/18 04:35:47;;;;;;;17.30;13.48;;;19.00;84.90;;;;;;5137974;27;20102;-34
2021/09/18 04:38:12;;;;;;;19.70;13.20;;;19.00;85.10;;;;;;5138795;27;20066;-31
2021/09/18 04:40:38;;;;;;;17.13;12.68;;;19.00;85.10;;;;;;5137754;27;20035;-35
2021/09/18 04:43:04;;;;;;;16.90;13.43;;;19.00;85.30;;;;;;5138476;27;20118;-33
2021/09/18 04:45:29;;;;;;;18.50;13.90;;;19.00;85.30;;;;;;5137959;27;20023;-33
2021/09/18 04:47:55;;;;;;;17.75;13.70;;;19.10;85.40;;;;;;5138219;27;20016;-32
2021/09/18 04:50:21;;;;;;;17.40;14.10;;;19.10;85.50;;;;;;5137957;27;20104;-33
2021/09/18 04:52:47;;;;;;;18.33;13.38;;;19.10;85.50;;;;;;5137948;27;20023;-34
2021/09/18 04:55:12;;;;;;;19.00;13.35;;;19.10;85.50;;;;;;5137543;27;20126;-33
2021/09/18 04:57:38;;;;;;;24.63;14.32;;;19.10;85.50;;;;;;5137786;27;20112;-32
2021/09/18 05:00:04;;;;;;;16.63;13.77;;;19.20;85.40;;;;;;5137561;27;20028;-33
2021/09/18 05:02:30;;;;;;;18.50;14.30;;;19.20;86.00;;;;;;5137139;27;20027;-32
2021/09/18 05:04:56;;;;;;;17.90;13.27;;;19.20;85.50;;;;;;5137529;27;20104;-34
2021/09/18 05:07:22;;;;;;;20.92;13.20;;;19.30;85.40;;;;;;5137696;27;20108;-33
2021/09/18 05:09:48;;;;;;;22.40;13.68;;;19.30;85.20;;;;;;5137446;27;20028;-35
2021/09/18 05:12:13;;;;;;;17.33;13.10;;;19.30;85.10;;;;;;5137655;27;20027;-33
2021/09/18 05:14:39;;;;;;;21.63;13.77;;;19.40;85.00;;;;;;5137369;27;20315;-33
2021/09/18 05:17:05;;;;;;;19.58;13.68;;;19.40;84.90;;;;;;5137158;27;20031;-34
2021/09/18 05:19:30;;;;;;;18.27;13.77;;;19.50;85.00;;;;;;5136948;27;20027;-34
2021/09/18 05:21:56;;;;;;;20.42;14.98;;;19.50;84.80;;;;;;5136991;27;20031;-35
2021/09/18 05:24:22;;;;;;;17.77;14.07;;;19.50;84.80;;;;;;5137310;27;20046;-33
2021/09/18 05:26:47;;;;;;;23.95;15.63;;;19.60;84.60;;;;;;5137145;27;20260;-34
2021/09/18 05:29:13;;;;;;;23.33;15.43;;;19.60;84.60;;;;;;5136930;27;20076;-33
2021/09/18 05:31:39;;;;;;;20.40;13.27;;;19.70;84.40;;;;;;5137091;27;20031;-33
2021/09/18 05:34:04;;;;;;;18.67;12.38;;;19.80;84.10;;;;;;5137251;27;20122;-34
2021/09/18 05:36:30;;;;;;;20.73;13.18;;;19.80;83.80;;;;;;5137204;27;20399;-34
2021/09/18 05:38:56;;;;;;;16.67;13.65;;;19.90;83.60;;;;;;5136820;27;20497;-34
2021/09/18 05:41:22;;;;;;;19.92;14.18;;;19.90;83.40;;;;;;5136402;27;20434;-35
2021/09/18 05:43:47;;;;;;;19.25;12.93;;;19.90;83.40;;;;;;5136695;27;20058;-33
2021/09/18 05:46:13;;;;;;;18.80;13.98;;;20.00;82.90;;;;;;5118872;27;20027;-35
2021/09/18 05:48:39;;;;;;;19.80;13.30;;;20.00;82.90;;;;;;5136503;27;20035;-33
2021/09/18 05:51:04;;;;;;;17.92;12.68;;;20.00;82.70;;;;;;5136581;27;20102;-34
2021/09/18 05:53:30;;;;;;;22.83;14.75;;;20.00;82.50;;;;;;5136603;27;20031;-35
2021/09/18 05:55:56;;;;;;;17.80;13.10;;;20.00;82.50;;;;;;5136462;27;20315;-33
2021/09/18 05:58:21;;;;;;;18.83;13.27;;;20.10;82.30;;;;;;5136985;27;20027;-34
2021/09/18 06:00:47;;;;;;;16.88;12.73;;;20.10;82.10;;;;;;5136205;27;20027;-32
2021/09/18 06:03:13;;;;;;;20.92;14.98;;;20.10;82.00;;;;;;5136775;27;20131;-36
2021/09/18 06:05:38;;;;;;;19.98;15.00;;;20.10;82.20;;;;;;5135924;27;20019;-32
2021/09/18 06:08:04;;;;;;;20.15;14.15;;;20.10;82.10;;;;;;5136971;27;20423;-32
2021/09/18 06:10:30;;;;;;;19.67;13.40;;;20.10;82.60;;;;;;5136322;27;20036;-33
2021/09/18 06:12:56;;;;;;;21.45;14.00;;;20.10;82.10;;;;;;5136564;27;20019;-34
2021/09/18 06:15:22;;;;;;;17.48;13.43;;;20.10;82.30;;;;;;5135135;27;20094;-34
2021/09/18 06:17:47;;;;;;;17.70;14.32;;;20.10;82.10;;;;;;5136517;27;20280;-34
2021/09/18 06:20:13;;;;;;;18.92;13.95;;;20.10;82.20;;;;;;5136149;27;20035;-33
2021/09/18 06:22:39;;;;;;;20.50;14.98;;;20.20;82.30;;;;;;5136135;28;20390;-33
2021/09/18 06:25:05;;;;;;;22.58;14.98;;;20.20;82.10;;;;;;5136129;28;20033;-33
2021/09/18 06:27:31;;;;;;;25.73;16.17;;;20.20;81.70;;;;;;5136322;28;20039;-34
2021/09/18 06:29:57;;;;;;;37.60;23.27;;;20.20;81.80;;;;;;5136314;28;20031;-35
2021/09/18 06:32:23;;;;;;;26.08;20.38;;;20.30;81.90;;;;;;5135892;28;20039;-33
2021/09/18 06:34:49;;;;;;;29.00;20.17;;;20.30;82.00;;;;;;5136160;28;20063;-33
2021/09/18 06:37:14;;;;;;;24.02;16.90;;;20.30;81.90;;;;;;5136010;28;20348;-33
2021/09/18 06:39:40;;;;;;;23.80;18.95;;;20.30;81.70;;;;;;5136238;28;20050;-33
2021/09/18 06:42:06;;;;;;;21.67;16.65;;;20.40;81.90;;;;;;5136115;28;20050;-34
2021/09/18 06:44:31;;;;;;;23.80;17.48;;;20.40;81.60;;;;;;5136012;28;20297;-33
2021/09/18 06:46:57;;;;;;;20.95;17.45;;;20.50;81.50;;;;;;5135900;28;20027;-33
2021/09/18 06:49:23;;;;;;;28.65;20.20;;;20.50;81.50;;;;;;5136044;28;20032;-34
2021/09/18 06:51:48;;;;;;;26.33;20.77;;;20.50;81.60;;;;;;5135997;28;20027;-33
2021/09/18 06:54:14;;;;;;;27.25;18.80;;;20.60;81.40;;;;;;5135753;28;20092;-33
2021/09/18 06:56:39;;;;;;;23.95;17.02;;;20.60;81.30;;;;;;5135736;28;20126;-33
2021/09/18 06:59:05;;;;;;;22.85;16.25;;;20.60;81.30;;;;;;5135553;28;20027;-33
2021/09/18 07:01:31;;;;;;;29.83;20.77;;;20.60;81.20;;;;;;5135616;28;20104;-33
2021/09/18 07:03:56;;;;;;;28.05;20.40;;;20.70;81.20;;;;;;5136026;28;20063;-34
2021/09/18 07:06:22;;;;;;;37.63;26.15;;;20.70;81.10;;;;;;5134639;28;20027;-33
2021/09/18 07:08:48;;;;;;;23.25;17.77;;;20.70;81.00;;;;;;5135622;28;20071;-33
2021/09/18 07:11:14;;;;;;;26.58;19.38;;;20.70;81.00;;;;;;5116494;28;20027;-33
2021/09/18 07:13:39;;;;;;;21.38;16.65;;;20.70;81.00;;;;;;5135693;28;20369;-33
2021/09/18 07:16:05;;;;;;;34.50;18.98;;;20.70;81.00;;;;;;5135433;28;20027;-33
2021/09/18 07:18:32;;;;;;;24.65;20.00;;;20.70;81.10;;;;;;5136002;28;20454;-35
2021/09/18 07:20:58;;;;;;;31.42;20.85;;;20.70;81.10;;;;;;5135537;28;20030;-33
2021/09/18 07:23:24;;;;;;;27.08;16.35;;;20.70;81.20;;;;;;5135798;28;20369;-33
2021/09/18 07:25:50;;;;;;;20.88;15.85;;;20.70;81.30;;;;;;5136943;27;20114;-34
2021/09/18 07:28:16;;;;;;;24.85;15.35;;;20.70;81.40;;;;;;5139998;27;20541;-35
2021/09/18 07:30:41;;;;;;;30.05;19.90;;;20.70;81.40;;;;;;5139001;27;20035;-35
2021/09/18 07:33:07;;;;;;;26.05;17.42;;;20.60;81.40;;;;;;5139775;27;20020;-35
2021/09/18 07:35:32;;;;;;;27.00;18.38;;;20.60;81.50;;;;;;5139376;27;20276;-33
2021/09/18 07:38:03;;;;;;;27.92;19.63;;;20.60;81.50;;;;;;5139518;27;20479;-33
2021/09/18 07:40:29;;;;;;;51.15;33.05;;;20.60;81.60;;;;;;5138967;27;20122;-33
2021/09/18 07:42:55;;;;;;;39.33;28.77;;;20.60;81.70;;;;;;5139590;27;20035;-35
2021/09/18 07:45:20;;;;;;;33.83;25.83;;;20.60;81.80;;;;;;5139157;27;20031;-34
2021/09/18 07:47:46;;;;;;;23.55;16.92;;;20.60;81.90;;;;;;5139241;27;20047;-33
2021/09/18 07:50:12;;;;;;;32.72;22.00;;;20.60;81.80;;;;;;5139046;27;20434;-34
2021/09/18 07:52:39;;;;;;;32.80;22.60;;;20.60;81.90;;;;;;5139175;27;20030;-33
2021/09/18 07:55:06;;;;;;;40.40;27.60;;;20.60;82.10;;;;;;5138655;27;20086;-33
2021/09/18 07:57:32;;;;;;;38.97;23.83;;;20.60;82.20;;;;;;5138266;27;20027;-33
2021/09/18 07:59:58;;;;;;;31.88;19.35;;;20.60;82.20;;;;;;5138699;27;20127;-34
2021/09/18 08:02:23;;;;;;;36.17;20.33;;;20.60;82.20;;;;;;5138808;27;20107;-35
2021/09/18 08:04:50;;;;;;;51.28;38.30;;;20.60;82.20;;;;;;5138562;27;20027;-35
2021/09/18 08:07:18;;;;;;;41.25;27.33;;;20.60;82.30;;;;;;5138759;27;20358;-34
2021/09/18 08:09:44;;;;;;;31.48;25.23;;;20.60;82.30;;;;;;5138419;27;20027;-34
2021/09/18 08:12:09;;;;;;;42.70;26.55;;;20.60;82.40;;;;;;5138824;27;20030;-33
2021/09/18 08:14:35;;;;;;;51.97;35.65;;;20.60;82.70;;;;;;5138374;27;20083;-35
2021/09/18 08:17:01;;;;;;;64.25;44.40;;;20.60;82.40;;;;;;5138544;27;20023;-35
2021/09/18 08:19:26;;;;;;;63.53;42.30;;;20.60;82.60;;;;;;5138449;27;20328;-33
2021/09/18 08:21:52;;;;;;;68.78;44.30;;;20.60;82.60;;;;;;5137717;27;20023;-35
2021/09/18 08:24:18;;;;;;;75.80;53.83;;;20.60;82.80;;;;;;5138665;27;20058;-33
2021/09/18 08:26:45;;;;;;;49.05;33.08;;;20.60;83.00;;;;;;5138180;27;20031;-32
2021/09/18 08:29:10;;;;;;;64.22;47.25;;;20.70;83.00;;;;;;5138248;27;20315;-35
2021/09/18 08:31:36;;;;;;;40.42;30.08;;;20.70;83.50;;;;;;5138006;27;20076;-35
2021/09/18 08:34:02;;;;;;;61.53;47.80;;;20.70;83.40;;;;;;5138127;27;20031;-32
2021/09/18 08:36:27;;;;;;;53.92;42.10;;;20.70;83.80;;;;;;5137918;27;20148;-33
2021/09/18 08:38:53;;;;;;;51.50;35.47;;;20.70;83.90;;;;;;5137047;27;20042;-32
2021/09/18 08:41:19;;;;;;;45.88;35.70;;;20.70;84.10;;;;;;5137663;27;20113;-33
2021/09/18 08:43:44;;;;;;;41.42;34.80;;;20.60;84.40;;;;;;5137623;27;20031;-32
2021/09/18 08:46:10;;;;;;;44.15;33.17;;;20.60;84.40;;;;;;5137865;27;20067;-34
2021/09/18 08:48:39;;;;;;;58.00;44.35;;;20.60;84.50;;;;;;5137944;27;20027;-33
2021/09/18 08:51:05;;;;;;;33.28;28.30;;;20.60;85.00;;;;;;5137349;27;20381;-33
2021/09/18 08:53:31;;;;;;;45.95;31.92;;;20.60;85.10;;;;;;5137869;27;20114;-34
2021/09/18 08:55:58;;;;;;;56.58;41.60;;;20.60;85.30;;;;;;5137099;27;20050;-34
2021/09/18 08:58:25;;;;;;;59.53;47.58;;;20.60;85.80;;;;;;5138110;27;20031;-33
2021/09/18 09:00:52;;;;;;;57.67;46.90;;;20.60;86.20;;;;;;5137209;27;20039;-33
2021/09/18 09:03:34;;;;;;;66.38;43.75;;;20.60;86.30;;;;;;5137852;27;20107;-33
2021/09/18 09:06:19;;;;;;;103.68;62.17;;;20.60;86.50;;;;;;5137250;27;20023;-33
2021/09/18 09:09:00;;;;;;;186.63;140.70;;;20.60;86.70;;;;;;5137122;27;20481;-34
2021/09/18 09:11:30;;;;;;;242.32;192.80;;;20.60;87.20;;;;;;5137308;27;20043;-34
2021/09/18 09:13:59;;;;;;;235.73;116.03;;;20.60;87.50;;;;;;5137354;27;20031;-35
2021/09/18 09:16:26;;;;;;;140.15;72.25;;;20.60;87.80;;;;;;5137356;27;20355;-35
2021/09/18 09:18:52;;;;;;;111.20;58.38;;;20.60;88.00;;;;;;5137303;27;20370;-34
2021/09/18 09:21:24;;;;;;;85.68;44.85;;;20.60;88.00;;;;;;5136982;27;20031;-33
2021/09/18 09:24:09;;;;;;;78.45;43.28;;;20.70;88.10;;;;;;5136934;27;20019;-35
2021/09/18 09:26:56;;;;;;;64.43;36.58;;;20.70;87.90;;;;;;5137091;27;20023;-33
2021/09/18 09:29:45;;;;;;;65.22;39.88;;;20.80;87.80;;;;;;5119384;27;20031;-34
2021/09/18 09:32:26;;;;;;;46.40;30.42;;;20.80;87.00;;;;;;5137209;27;20311;-35
2021/09/18 09:34:53;;;;;;;56.10;32.83;;;20.80;86.80;;;;;;5136856;27;20363;-35
2021/09/18 09:37:20;;;;;;;37.10;26.08;;;20.80;86.80;;;;;;5136956;27;20033;-34
2021/09/18 09:39:55;;;;;;;39.53;26.00;;;20.80;86.60;;;;;;5136540;27;20474;-34
2021/09/18 09:42:54;;;;;;;47.03;28.45;;;20.80;86.20;;;;;;5136949;27;20356;-34
2021/09/18 09:45:22;;;;;;;36.78;25.63;;;20.90;86.60;;;;;;5114348;27;20043;-35
2021/09/18 09:48:20;;;;;;;46.08;29.38;;;20.90;86.70;;;;;;5136875;27;20027;-34
2021/09/18 09:51:01;;;;;;;36.63;26.33;;;20.90;86.40;;;;;;5136363;27;20042;-35
2021/09/18 09:53:30;;;;;;;30.23;23.00;;;20.90;86.00;;;;;;5136492;27;20438;-34
2021/09/18 09:55:57;;;;;;;32.15;22.17;;;20.90;86.40;;;;;;5136205;27;20027;-33
2021/09/18 09:58:24;;;;;;;28.35;21.08;;;21.00;86.20;;;;;;5136390;27;20065;-33
2021/09/18 10:00:52;;;;;;;34.20;24.30;;;21.00;86.00;;;;;;5117890;27;20030;-35
2021/09/18 10:03:26;;;;;;;42.67;23.52;;;21.00;86.40;;;;;;5137068;27;20034;-34
2021/09/18 10:05:54;;;;;;;32.50;23.38;;;21.00;86.10;;;;;;5136285;27;20027;-35
2021/09/18 10:08:24;;;;;;;40.78;26.50;;;21.00;86.00;;;;;;5137157;27;20031;-33
2021/09/18 10:10:51;;;;;;;;;;;21.00;86.10;;;;;;5136637;27;20042;-39
2021/09/18 10:13:23;;;;;;;48.08;32.03;;;21.00;85.60;;;;;;5136969;27;19960;-35
2021/09/18 10:15:50;;;;;;;51.30;33.72;;;21.00;86.50;;;;;;5136016;27;20129;-35
2021/09/18 10:18:17;;;;;;;52.55;34.47;;;20.90;86.60;;;;;;5136823;27;20031;-33
2021/09/18 10:23:19;;;;;;;71.97;33.70;;;20.90;86.50;;;;;;5136828;28;20086;-33
2021/09/18 10:25:50;;;;;;;74.50;34.28;;;20.80;87.00;;;;;;5136165;28;20441;-33
2021/09/18 10:28:19;;;;;;;76.78;33.85;;;20.80;87.10;;;;;;5136567;28;20023;-33
2021/09/18 10:30:44;;;;;;;78.40;33.47;;;20.80;87.20;;;;;;5135820;28;20023;-33
2021/09/18 10:33:41;;;;;;;96.90;35.88;;;20.80;87.60;;;;;;5136150;28;20031;-34
2021/09/18 10:36:22;;;;;;;92.40;33.03;;;20.70;87.20;;;;;;5134274;28;20051;-33
2021/09/18 10:39:18;;;;;;;91.05;31.83;;;20.70;87.40;;;;;;5135782;28;20075;-33
2021/09/18 10:41:48;;;;;;;64.72;25.70;;;20.70;87.30;;;;;;5129101;28;20070;-33
2021/09/18 10:44:16;;;;;;;58.08;24.33;;;20.60;87.90;;;;;;5136285;28;20315;-34
2021/09/18 10:47:02;;;;;;;47.50;22.45;;;20.60;88.30;;;;;;5136274;28;20323;-34
2021/09/18 10:49:33;;;;;;;30.27;18.70;;;20.50;88.30;;;;;;5136047;28;20073;-33
2021/09/18 10:52:17;;;;;;;27.23;17.95;;;20.60;88.50;;;;;;5136085;28;20027;-33
2021/09/18 10:55:10;;;;;;;20.85;14.68;;;20.50;88.50;;;;;;5135587;28;20055;-34
2021/09/18 10:57:39;;;;;;;21.40;15.77;;;20.50;88.70;;;;;;5135835;28;20038;-35
2021/09/18 11:00:28;;;;;;;18.85;14.65;;;20.40;89.30;;;;;;5136006;27;20066;-35
2021/09/18 11:02:58;;;;;;;25.30;14.43;;;20.40;89.30;;;;;;5129399;27;20048;-33
2021/09/18 11:05:27;;;;;;;19.90;13.73;;;20.30;90.00;;;;;;5139888;27;20110;-35
2021/09/18 11:07:58;;;;;;;19.70;14.23;;;20.30;90.10;;;;;;5140289;27;20078;-34
2021/09/18 11:10:45;;;;;;;15.57;11.80;;;20.30;90.30;;;;;;5140182;27;20385;-35
2021/09/18 11:13:11;;;;;;;19.63;12.80;;;20.30;90.50;;;;;;5125558;27;20115;-33
2021/09/18 11:16:07;;;;;;;13.40;8.10;;;20.30;90.50;;;;;;5139411;27;20088;-34
2021/09/18 11:18:42;;;;;;;10.60;7.10;;;20.30;90.00;;;;;;5110272;27;20456;-35
2021/09/18 11:21:25;;;;;;;10.55;7.20;;;20.20;89.90;;;;;;5139596;27;20368;-35
2021/09/18 11:23:59;;;;;;;10.45;6.57;;;20.20;89.60;;;;;;5139913;27;20039;-34
2021/09/18 11:26:47;;;;;;;12.43;7.22;;;20.10;89.60;;;;;;5139332;27;20031;-35
2021/09/18 11:29:15;;;;;;;15.95;8.10;;;20.10;89.30;;;;;;5139604;27;20087;-34
2021/09/18 11:32:01;;;;;;;11.55;8.50;;;20.10;89.50;;;;;;5139259;27;20031;-33
2021/09/18 11:34:51;;;;;;;13.50;8.75;;;20.00;89.10;;;;;;5139602;27;20084;-33
2021/09/18 11:37:33;;;;;;;12.93;8.00;;;20.00;88.70;;;;;;5126912;27;20042;-33
2021/09/18 11:40:05;;;;;;;14.55;10.20;;;20.00;89.30;;;;;;5139469;27;20110;-33
2021/09/18 11:42:36;;;;;;;17.63;10.48;;;19.90;89.40;;;;;;5139284;27;20024;-34
2021/09/18 11:45:13;;;;;;;20.23;10.63;;;19.90;89.80;;;;;;5139371;27;20033;-35
2021/09/18 11:47:44;;;;;;;17.95;12.05;;;19.90;90.00;;;;;;5139307;27;20299;-33
2021/09/18 11:50:32;;;;;;;13.95;9.65;;;19.90;90.10;;;;;;5138916;27;20084;-33
2021/09/18 11:53:01;;;;;;;13.95;10.23;;;19.90;89.90;;;;;;5139437;27;20403;-32
2021/09/18 11:55:36;;;;;;;12.75;9.63;;;19.90;90.30;;;;;;5138925;27;20047;-32
2021/09/18 11:58:12;;;;;;;15.95;11.00;;;19.90;90.20;;;;;;5139324;27;20035;-32
2021/09/18 12:00:54;;;;;;;14.57;8.75;;;19.90;90.00;;;;;;5138877;27;20035;-33
2021/09/18 12:03:39;;;;;;;14.15;9.55;;;19.90;89.90;;;;;;5139369;27;20026;-32
2021/09/18 12:06:10;;;;;;;10.02;8.00;;;19.90;89.60;;;;;;5138623;27;20027;-33
2021/09/18 12:08:39;;;;;;;22.73;17.67;;;20.00;89.70;;;;;;5138984;27;20084;-32
2021/09/18 12:11:08;;;;;;;13.13;10.18;;;19.90;89.80;;;;;;5138617;27;20323;-32
2021/09/18 12:13:35;;;;;;;12.82;9.40;;;20.00;89.90;;;;;;5137870;27;20343;-34
2021/09/18 12:16:03;;;;;;;14.45;9.82;;;20.00;89.80;;;;;;5138193;27;20027;-34
2021/09/18 12:18:34;;;;;;;14.93;11.18;;;20.00;89.70;;;;;;5138802;27;20367;-33
2021/09/18 12:21:07;;;;;;;11.90;9.57;;;20.00;90.00;;;;;;5138499;27;20034;-34
2021/09/18 12:23:38;;;;;;;13.43;10.95;;;20.00;89.90;;;;;;5138559;27;20061;-32
2021/09/18 12:26:06;;;;;;;16.65;11.48;;;20.00;90.00;;;;;;5138212;27;20031;-34
2021/09/18 12:28:33;;;;;;;17.27;12.80;;;20.00;90.20;;;;;;5138504;27;20027;-32
2021/09/18 12:31:00;;;;;;;15.98;11.68;;;20.00;90.20;;;;;;5137970;27;20076;-33
2021/09/18 12:33:33;;;;;;;17.85;12.13;;;20.10;90.30;;;;;;5138831;27;20088;-32
2021/09/18 12:36:10;;;;;;;17.83;13.45;;;20.10;90.10;;;;;;5138028;27;20054;-32